createdAt,value
2023-12-29T00:00:54.426Z,88.53
2023-12-29T00:01:54.534Z,88.74
2023-12-29T00:02:54.390Z,89.19
2023-12-29T00:03:54.454Z,89.15
2023-12-29T00:04:54.441Z,88.74
2023-12-29T00:05:54.373Z,88.78
2023-12-29T00:07:00.411Z,88.74
2023-12-29T00:07:54.431Z,88.94
2023-12-29T00:08:54.344Z,88.53
2023-12-29T00:09:54.376Z,88.74
2023-12-29T00:10:54.286Z,89.04
2023-12-29T00:11:54.258Z,88.94
2023-12-29T00:12:54.328Z,88.53
2023-12-29T00:13:54.238Z,89.04
2023-12-29T00:14:54.244Z,88.84
2023-12-29T00:15:54.292Z,88.74
2023-12-29T00:16:54.282Z,88.53
2023-12-29T00:17:54.371Z,88.84
2023-12-29T00:18:54.374Z,88.84
2023-12-29T00:19:56.863Z,88.53
2023-12-29T00:21:06.099Z,89.60
2023-12-29T00:21:54.175Z,89.97
2023-12-29T00:22:55.203Z,89.87
2023-12-29T00:23:54.145Z,89.97
2023-12-29T00:24:54.197Z,90.32
2023-12-29T00:25:54.684Z,89.97
2023-12-29T00:26:54.117Z,89.87
2023-12-29T00:27:54.134Z,89.66
2023-12-29T00:28:54.246Z,89.45
2023-12-29T00:29:54.090Z,89.56
2023-12-29T00:31:01.173Z,89.66
2023-12-29T00:31:54.354Z,89.36
2023-12-29T00:32:54.117Z,89.60
2023-12-29T00:33:54.304Z,89.66
2023-12-29T00:34:54.223Z,89.97
2023-12-29T00:35:54.405Z,89.66
2023-12-29T00:36:54.064Z,89.66
2023-12-29T00:37:54.042Z,89.66
2023-12-29T00:38:54.034Z,89.56
2023-12-29T00:39:54.279Z,89.66
2023-12-29T00:40:53.953Z,89.66
2023-12-29T00:41:54.241Z,89.15
2023-12-29T00:42:54.138Z,89.56
2023-12-29T00:43:53.964Z,89.04
2023-12-29T00:44:54.332Z,89.15
2023-12-29T00:45:54.123Z,89.45
2023-12-29T00:46:54.153Z,89.45
2023-12-29T00:47:54.017Z,89.66
2023-12-29T00:48:54.233Z,89.15
2023-12-29T00:49:53.997Z,89.25
2023-12-29T00:50:53.837Z,89.45
2023-12-29T00:51:54.115Z,89.25
2023-12-29T00:52:54.419Z,89.66
2023-12-29T00:53:53.846Z,89.15
2023-12-29T00:54:53.901Z,89.56
2023-12-29T00:55:53.839Z,89.36
2023-12-29T00:56:59.292Z,89.25
2023-12-29T00:57:53.933Z,89.36
2023-12-29T00:58:53.774Z,89.25
2023-12-29T00:59:55.248Z,89.15
2023-12-29T01:00:53.912Z,89.25
2023-12-29T01:01:54.124Z,89.36
2023-12-29T01:02:53.977Z,89.36
2023-12-29T01:03:53.814Z,89.45
2023-12-29T01:04:53.916Z,89.25
2023-12-29T01:05:53.818Z,89.36
2023-12-29T01:06:53.705Z,89.36
2023-12-29T01:08:00.966Z,89.45
2023-12-29T01:08:53.848Z,89.56
2023-12-29T01:09:54.243Z,89.04
2023-12-29T01:10:53.688Z,88.74
2023-12-29T01:11:53.758Z,89.04
2023-12-29T01:12:53.680Z,89.15
2023-12-29T01:13:53.629Z,89.04
2023-12-29T01:14:53.620Z,89.15
2023-12-29T01:15:53.725Z,89.04
2023-12-29T01:16:53.560Z,89.25
2023-12-29T01:17:53.639Z,89.45
2023-12-29T01:18:53.707Z,89.45
2023-12-29T01:22:29.470Z,89.36
2023-12-29T01:23:30.449Z,89.45
2023-12-29T01:24:36.219Z,89.56
2023-12-29T01:25:30.519Z,89.97
2023-12-29T01:26:30.470Z,89.76
2023-12-29T01:27:30.774Z,89.97
2023-12-29T01:28:30.578Z,89.66
2023-12-29T01:29:30.423Z,89.56
2023-12-29T01:30:30.481Z,89.56
2023-12-29T01:31:30.414Z,89.66
2023-12-29T01:32:30.398Z,89.45
2023-12-29T01:33:30.444Z,89.76
2023-12-29T01:34:30.403Z,89.56
2023-12-29T01:35:30.329Z,89.76
2023-12-29T01:36:30.377Z,89.45
2023-12-29T01:37:30.349Z,89.66
2023-12-29T01:38:30.362Z,89.97
2023-12-29T01:39:30.359Z,89.66
2023-12-29T01:40:30.354Z,89.76
2023-12-29T01:41:30.269Z,90.17
2023-12-29T01:42:30.278Z,90.17
2023-12-29T01:43:30.291Z,89.97
2023-12-29T01:44:30.289Z,89.97
2023-12-29T01:45:30.285Z,89.97
2023-12-29T01:46:30.323Z,89.45
2023-12-29T01:47:30.223Z,89.76
2023-12-29T01:48:30.481Z,89.66
2023-12-29T01:49:30.422Z,90.07
2023-12-29T01:50:30.218Z,90.28
2023-12-29T01:51:30.203Z,91.09
2023-12-29T01:52:30.236Z,91.61
2023-12-29T01:53:35.362Z,91.96
2023-12-29T01:54:30.177Z,92.36
2023-12-29T01:55:30.185Z,92.88
2023-12-29T01:56:30.147Z,93.49
2023-12-29T01:57:30.243Z,94.52
2023-12-29T01:58:30.104Z,95.28
2023-12-29T01:59:30.119Z,95.79
2023-12-29T02:00:30.346Z,96.62
2023-12-29T02:01:30.229Z,97.33
2023-12-29T02:02:30.084Z,98.05
2023-12-29T02:03:30.173Z,98.30
2023-12-29T02:04:30.349Z,99.12
2023-12-29T02:05:30.063Z,99.99
2023-12-29T02:06:30.350Z,99.99
2023-12-29T02:07:37.937Z,99.99
2023-12-29T02:08:31.437Z,99.99
2023-12-29T02:09:30.111Z,99.99
2023-12-29T02:10:30.015Z,99.99
2023-12-29T02:11:30.939Z,99.99
2023-12-29T02:12:30.471Z,99.99
2023-12-29T02:13:30.421Z,99.99
2023-12-29T02:14:30.482Z,99.99
2023-12-29T02:15:30.091Z,99.99
2023-12-29T02:16:29.966Z,99.99
2023-12-29T02:17:29.951Z,99.99
2023-12-29T02:18:30.339Z,99.99
2023-12-29T02:19:31.151Z,99.99
2023-12-29T02:20:29.938Z,99.99
2023-12-29T02:21:29.923Z,99.99
2023-12-29T02:22:29.870Z,99.99
2023-12-29T02:23:30.080Z,99.99
2023-12-29T02:24:29.882Z,99.99
2023-12-29T02:25:29.933Z,99.99
2023-12-29T02:26:29.848Z,99.99
2023-12-29T02:27:29.867Z,99.99
2023-12-29T02:28:29.847Z,99.99
2023-12-29T02:29:29.805Z,99.99
2023-12-29T02:30:30.033Z,99.99
2023-12-29T02:31:30.197Z,99.99
2023-12-29T02:32:29.893Z,99.99
2023-12-29T02:33:30.018Z,99.99
2023-12-29T02:34:30.166Z,99.99
2023-12-29T02:35:29.823Z,99.99
2023-12-29T02:36:30.567Z,99.99
2023-12-29T02:37:29.778Z,99.99
2023-12-29T02:38:29.713Z,99.99
2023-12-29T02:39:29.752Z,99.99
2023-12-29T02:40:29.740Z,99.99
2023-12-29T02:41:29.751Z,99.99
2023-12-29T02:42:29.831Z,99.99
2023-12-29T02:43:30.045Z,99.99
2023-12-29T02:44:29.776Z,99.99
2023-12-29T02:45:29.857Z,99.99
2023-12-29T02:46:30.035Z,99.99
2023-12-29T02:47:30.182Z,99.99
2023-12-29T02:48:29.718Z,99.99
2023-12-29T02:49:29.748Z,99.99
2023-12-29T02:52:36.129Z,99.99
2023-12-29T02:53:35.823Z,99.99
2023-12-29T02:54:35.261Z,99.99
2023-12-29T02:55:35.146Z,99.99
2023-12-29T02:56:35.170Z,99.99
2023-12-29T02:57:35.258Z,99.99
2023-12-29T02:58:35.202Z,99.99
2023-12-29T02:59:35.253Z,99.99
2023-12-29T03:00:35.314Z,99.99
2023-12-29T03:01:35.431Z,99.99
2023-12-29T03:02:35.215Z,99.99
2023-12-29T03:03:35.200Z,99.99
2023-12-29T03:04:35.105Z,99.99
2023-12-29T03:05:35.089Z,99.99
2023-12-29T03:06:35.235Z,99.99
2023-12-29T03:07:35.879Z,99.99
2023-12-29T03:08:35.610Z,99.99
2023-12-29T03:09:35.182Z,99.99
2023-12-29T03:10:35.475Z,99.99
2023-12-29T03:11:35.182Z,99.99
2023-12-29T03:12:35.336Z,99.99
2023-12-29T03:13:35.056Z,99.99
2023-12-29T03:14:34.991Z,99.99
2023-12-29T03:15:35.003Z,99.99
2023-12-29T03:16:34.962Z,99.99
2023-12-29T03:17:35.115Z,99.99
2023-12-29T03:18:35.144Z,99.99
2023-12-29T03:19:35.127Z,99.99
2023-12-29T03:20:34.932Z,99.99
2023-12-29T03:21:35.573Z,99.99
2023-12-29T03:22:34.948Z,99.99
2023-12-29T03:23:35.126Z,99.99
2023-12-29T03:24:34.992Z,99.99
2023-12-29T03:25:34.912Z,99.99
2023-12-29T03:26:34.966Z,99.99
2023-12-29T03:27:35.880Z,99.99
2023-12-29T03:28:34.822Z,99.99
2023-12-29T03:29:34.976Z,99.99
2023-12-29T03:30:36.010Z,99.99
2023-12-29T03:31:34.937Z,99.99
2023-12-29T03:32:36.692Z,99.99
2023-12-29T03:33:34.852Z,99.99
2023-12-29T03:34:35.295Z,99.99
2023-12-29T03:35:34.862Z,99.99
2023-12-29T03:36:34.803Z,99.99
2023-12-29T03:37:34.730Z,99.99
2023-12-29T03:38:34.776Z,99.99
2023-12-29T03:39:34.920Z,99.99
2023-12-29T03:40:35.772Z,99.99
2023-12-29T03:41:34.755Z,99.99
2023-12-29T03:42:34.864Z,99.99
2023-12-29T03:43:35.036Z,99.99
2023-12-29T03:44:34.722Z,99.99
2023-12-29T03:45:34.870Z,99.99
2023-12-29T03:46:34.618Z,99.99
2023-12-29T03:47:34.665Z,99.99
2023-12-29T03:48:34.758Z,99.99
2023-12-29T03:49:34.699Z,99.99
2023-12-29T03:50:34.699Z,99.99
2023-12-29T03:51:34.777Z,99.99
2023-12-29T03:52:34.618Z,99.99
2023-12-29T03:53:34.542Z,99.99
2023-12-29T03:54:34.610Z,99.99
2023-12-29T03:55:34.606Z,99.99
2023-12-29T03:56:35.454Z,99.99
2023-12-29T03:57:34.620Z,99.99
2023-12-29T03:58:35.335Z,99.99
2023-12-29T03:59:34.781Z,99.99
2023-12-29T04:00:34.569Z,99.99
2023-12-29T04:01:34.588Z,99.99
2023-12-29T04:02:34.554Z,99.99
2023-12-29T04:03:34.607Z,99.99
2023-12-29T04:04:34.507Z,99.99
2023-12-29T04:05:34.660Z,99.99
2023-12-29T04:06:34.510Z,99.99
2023-12-29T04:07:34.439Z,99.99
2023-12-29T04:08:35.343Z,99.99
2023-12-29T04:09:34.510Z,99.99
2023-12-29T04:10:34.384Z,99.99
2023-12-29T04:11:34.452Z,99.99
2023-12-29T04:12:34.479Z,99.99
2023-12-29T04:13:34.372Z,99.99
2023-12-29T04:14:35.294Z,99.99
2023-12-29T04:15:34.848Z,99.99
2023-12-29T04:16:34.457Z,99.99
2023-12-29T04:17:34.535Z,99.99
2023-12-29T04:18:34.470Z,99.99
2023-12-29T04:19:34.858Z,99.99
2023-12-29T04:20:37.020Z,99.99
2023-12-29T04:21:34.308Z,99.99
2023-12-29T04:22:34.390Z,99.99
2023-12-29T04:23:34.617Z,99.99
2023-12-29T04:24:34.376Z,99.99
2023-12-29T04:25:34.266Z,99.99
2023-12-29T04:26:34.909Z,99.99
2023-12-29T04:27:34.246Z,99.99
2023-12-29T04:28:34.164Z,99.99
2023-12-29T04:29:34.158Z,99.99
2023-12-29T04:30:34.291Z,99.99
2023-12-29T04:31:34.185Z,99.99
2023-12-29T04:32:34.187Z,99.99
2023-12-29T04:33:34.270Z,99.99
2023-12-29T04:34:34.328Z,99.99
2023-12-29T04:35:34.098Z,99.99
2023-12-29T04:36:35.797Z,99.99
2023-12-29T04:37:34.154Z,99.99
2023-12-29T04:38:34.143Z,99.99
2023-12-29T04:39:34.134Z,99.99
2023-12-29T04:40:34.149Z,99.84
2023-12-29T04:41:34.677Z,99.43
2023-12-29T04:42:34.129Z,99.12
2023-12-29T04:43:34.068Z,98.92
2023-12-29T04:44:34.033Z,98.71
2023-12-29T04:45:35.197Z,98.92
2023-12-29T04:46:34.022Z,98.51
2023-12-29T04:47:35.376Z,98.30
2023-12-29T04:48:34.132Z,98.20
2023-12-29T04:49:34.350Z,98.10
2023-12-29T04:50:34.013Z,97.99
2023-12-29T04:51:35.373Z,97.89
2023-12-29T04:52:36.343Z,98.20
2023-12-29T04:53:35.859Z,97.89
2023-12-29T04:54:34.054Z,97.48
2023-12-29T04:55:55.011Z,97.07
2023-12-29T04:56:33.915Z,97.03
2023-12-29T04:57:34.171Z,97.13
2023-12-29T04:58:34.298Z,97.17
2023-12-29T04:59:34.848Z,97.33
2023-12-29T05:00:37.000Z,97.03
2023-12-29T05:01:36.451Z,97.03
2023-12-29T05:02:34.621Z,96.62
2023-12-29T05:03:34.041Z,96.51
2023-12-29T05:04:36.440Z,96.20
2023-12-29T05:05:34.011Z,96.10
2023-12-29T05:06:33.832Z,95.79
2023-12-29T05:07:33.904Z,96.00
2023-12-29T05:08:34.981Z,96.31
2023-12-29T05:09:34.778Z,96.51
2023-12-29T05:10:35.347Z,96.51
2023-12-29T05:11:34.937Z,96.62
2023-12-29T05:12:34.304Z,96.10
2023-12-29T05:13:40.907Z,95.90
2023-12-29T05:14:37.868Z,95.28
2023-12-29T05:15:36.906Z,95.39
2023-12-29T05:16:34.444Z,95.49
2023-12-29T05:17:34.869Z,95.69
2023-12-29T05:18:34.596Z,95.28
2023-12-29T05:19:34.683Z,95.69
2023-12-29T05:20:36.845Z,95.59
2023-12-29T05:21:34.396Z,95.59
2023-12-29T05:22:34.360Z,95.59
2023-12-29T05:23:33.981Z,95.39
2023-12-29T05:24:33.712Z,95.18
2023-12-29T05:26:33.345Z,95.18
2023-12-29T05:28:23.440Z,94.98
2023-12-29T05:28:29.522Z,95.18
2023-12-29T05:29:34.811Z,95.39
2023-12-29T05:30:30.994Z,95.59
2023-12-29T05:31:29.895Z,95.39
2023-12-29T05:38:41.860Z,95.28
2023-12-29T05:38:51.330Z,95.39
2023-12-29T05:39:48.256Z,95.12
2023-12-29T05:41:09.856Z,95.18
2023-12-29T05:41:48.937Z,95.28
2023-12-29T05:42:48.703Z,95.23
2023-12-29T05:48:19.895Z,95.43
2023-12-29T05:48:49.679Z,95.23
2023-12-29T05:49:26.622Z,95.43
2023-12-29T05:50:27.040Z,95.02
2023-12-29T05:51:37.856Z,95.02
2023-12-29T05:54:52.143Z,94.98
2023-12-29T05:54:58.185Z,94.67
2023-12-29T05:55:59.125Z,94.98
2023-12-29T05:56:59.534Z,95.28
2023-12-29T05:57:59.414Z,95.18
2023-12-29T05:58:58.083Z,95.28
2023-12-29T05:59:58.267Z,94.87
2023-12-29T06:01:02.099Z,94.46
2023-12-29T06:01:58.147Z,94.36
2023-12-29T06:02:58.355Z,94.36
2023-12-29T06:03:58.184Z,94.26
2023-12-29T06:04:57.990Z,94.46
2023-12-29T06:05:58.413Z,94.15
2023-12-29T06:06:59.627Z,94.26
2023-12-29T06:09:10.499Z,94.26
2023-12-29T06:09:16.775Z,93.85
2023-12-29T06:10:16.426Z,94.26
2023-12-29T06:11:15.960Z,94.26
2023-12-29T06:12:16.272Z,93.95
2023-12-29T06:13:16.231Z,94.26
2023-12-29T06:14:18.019Z,94.36
2023-12-29T06:15:17.381Z,94.46
2023-12-29T06:16:15.968Z,94.15
2023-12-29T06:17:17.508Z,94.15
2023-12-29T06:18:16.349Z,94.15
2023-12-29T06:19:18.527Z,94.05
2023-12-29T06:20:17.095Z,93.85
2023-12-29T06:21:16.888Z,93.95
2023-12-29T06:22:16.127Z,94.26
2023-12-29T06:23:15.906Z,94.05
2023-12-29T06:24:15.887Z,94.15
2023-12-29T06:25:16.090Z,93.85
2023-12-29T06:26:17.371Z,93.44
2023-12-29T06:27:15.874Z,93.64
2023-12-29T06:28:16.405Z,93.33
2023-12-29T06:29:15.911Z,93.64
2023-12-29T06:30:15.982Z,93.85
2023-12-29T06:31:16.467Z,93.74
2023-12-29T06:32:15.981Z,93.85
2023-12-29T06:33:16.964Z,93.44
2023-12-29T06:34:16.031Z,93.23
2023-12-29T06:35:18.131Z,93.64
2023-12-29T06:36:15.883Z,93.85
2023-12-29T06:37:15.883Z,93.44
2023-12-29T06:38:16.149Z,93.74
2023-12-29T06:39:15.883Z,93.54
2023-12-29T06:40:16.556Z,93.85
2023-12-29T06:41:15.879Z,93.44
2023-12-29T06:42:16.412Z,93.13
2023-12-29T06:43:17.949Z,93.13
2023-12-29T06:44:16.874Z,92.82
2023-12-29T06:45:16.385Z,93.33
2023-12-29T06:46:15.789Z,92.93
2023-12-29T06:47:16.477Z,93.02
2023-12-29T06:48:27.037Z,93.23
2023-12-29T06:49:16.165Z,93.02
2023-12-29T06:50:15.875Z,93.33
2023-12-29T06:51:16.371Z,93.02
2023-12-29T06:52:16.026Z,93.33
2023-12-29T06:53:16.087Z,93.44
2023-12-29T06:54:15.565Z,93.44
2023-12-29T06:55:16.561Z,93.44
2023-12-29T06:56:15.585Z,92.93
2023-12-29T06:57:15.582Z,93.02
2023-12-29T06:58:15.506Z,93.33
2023-12-29T06:59:15.487Z,93.54
2023-12-29T07:00:15.543Z,93.13
2023-12-29T07:01:15.519Z,92.82
2023-12-29T07:02:15.629Z,93.74
2023-12-29T07:03:15.628Z,92.82
2023-12-29T07:04:15.736Z,92.72
2023-12-29T07:05:15.573Z,93.64
2023-12-29T07:06:15.428Z,93.33
2023-12-29T07:07:15.469Z,93.13
2023-12-29T07:08:15.545Z,93.33
2023-12-29T07:09:15.486Z,93.13
2023-12-29T07:10:15.636Z,92.72
2023-12-29T07:11:15.343Z,93.44
2023-12-29T07:12:15.427Z,93.17
2023-12-29T07:13:16.181Z,93.17
2023-12-29T07:14:15.404Z,93.38
2023-12-29T07:15:15.413Z,93.48
2023-12-29T07:16:15.326Z,93.59
2023-12-29T07:17:15.325Z,93.99
2023-12-29T07:18:15.382Z,94.10
2023-12-29T07:19:15.450Z,93.59
2023-12-29T07:20:15.271Z,93.17
2023-12-29T07:21:18.084Z,93.89
2023-12-29T07:22:15.192Z,93.68
2023-12-29T07:23:15.340Z,93.79
2023-12-29T07:24:15.421Z,93.68
2023-12-29T07:25:15.340Z,93.68
2023-12-29T07:26:15.238Z,93.79
2023-12-29T07:27:15.138Z,93.79
2023-12-29T07:28:15.350Z,93.79
2023-12-29T07:29:15.139Z,93.99
2023-12-29T07:30:15.176Z,93.89
2023-12-29T07:31:15.346Z,94.10
2023-12-29T07:32:15.119Z,93.99
2023-12-29T07:33:15.263Z,93.89
2023-12-29T07:36:18.670Z,94.10
2023-12-29T07:37:19.214Z,93.99
2023-12-29T07:38:19.198Z,93.89
2023-12-29T07:39:19.217Z,93.89
2023-12-29T07:40:19.209Z,93.99
2023-12-29T07:41:19.074Z,94.30
2023-12-29T07:42:19.094Z,94.10
2023-12-29T07:43:19.122Z,94.30
2023-12-29T07:44:19.111Z,93.99
2023-12-29T07:45:19.052Z,93.99
2023-12-29T07:46:19.096Z,94.40
2023-12-29T07:47:19.027Z,94.81
2023-12-29T07:48:19.091Z,95.23
2023-12-29T07:49:19.034Z,95.32
2023-12-29T07:50:19.034Z,96.04
2023-12-29T07:51:18.966Z,96.15
2023-12-29T07:52:19.190Z,96.77
2023-12-29T07:53:18.947Z,97.38
2023-12-29T07:54:18.985Z,98.45
2023-12-29T07:55:19.034Z,99.27
2023-12-29T07:56:18.931Z,99.89
2023-12-29T07:57:18.951Z,99.99
2023-12-29T07:58:18.995Z,99.99
2023-12-29T07:59:18.919Z,99.99
2023-12-29T08:00:18.925Z,99.99
2023-12-29T08:01:18.927Z,99.99
2023-12-29T08:02:19.065Z,99.99
2023-12-29T08:03:19.184Z,99.99
2023-12-29T08:04:18.954Z,99.99
2023-12-29T08:05:18.823Z,99.99
2023-12-29T08:06:18.898Z,99.99
2023-12-29T08:12:12.347Z,99.99
2023-12-29T08:13:13.451Z,99.99
2023-12-29T08:14:13.318Z,99.99
2023-12-29T08:15:13.403Z,99.99
2023-12-29T08:16:13.323Z,99.99
2023-12-29T08:17:13.320Z,99.99
2023-12-29T08:18:13.260Z,99.99
2023-12-29T08:19:13.278Z,99.99
2023-12-29T08:20:13.218Z,99.99
2023-12-29T08:21:13.254Z,99.99
2023-12-29T08:22:13.236Z,99.99
2023-12-29T08:23:13.280Z,99.99
2023-12-29T08:24:13.200Z,99.99
2023-12-29T08:25:13.379Z,99.99
2023-12-29T08:26:13.160Z,99.99
2023-12-29T08:27:13.167Z,99.99
2023-12-29T08:28:13.220Z,99.99
2023-12-29T08:29:13.159Z,99.99
2023-12-29T08:30:13.130Z,99.99
2023-12-29T08:31:13.139Z,99.99
2023-12-29T08:32:13.084Z,99.99
2023-12-29T08:33:13.085Z,99.99
2023-12-29T08:34:13.141Z,99.99
2023-12-29T08:35:13.140Z,99.99
2023-12-29T08:36:13.056Z,99.99
2023-12-29T08:37:13.075Z,99.99
2023-12-29T08:38:13.018Z,99.99
2023-12-29T08:39:13.072Z,99.99
2023-12-29T08:40:13.040Z,99.99
2023-12-29T08:41:12.997Z,99.99
2023-12-29T08:42:13.006Z,99.99
2023-12-29T08:43:13.121Z,99.99
2023-12-29T08:44:12.967Z,99.99
2023-12-29T08:45:12.974Z,99.99
2023-12-29T08:46:12.948Z,99.99
2023-12-29T08:47:12.963Z,99.99
2023-12-29T08:48:13.023Z,99.99
2023-12-29T08:49:12.975Z,99.99
2023-12-29T08:50:12.902Z,99.99
2023-12-29T08:51:12.886Z,99.99
2023-12-29T08:52:12.990Z,99.99
2023-12-29T08:53:12.856Z,99.99
2023-12-29T08:54:12.830Z,99.99
2023-12-29T08:55:12.973Z,99.99
2023-12-29T08:56:12.856Z,99.99
2023-12-29T08:57:13.262Z,99.99
2023-12-29T08:58:12.806Z,99.99
2023-12-29T08:59:12.818Z,99.99
2023-12-29T09:00:12.862Z,99.99
2023-12-29T09:01:12.905Z,99.99
2023-12-29T09:02:12.770Z,99.99
2023-12-29T09:03:12.791Z,99.99
2023-12-29T09:04:12.908Z,99.99
2023-12-29T09:05:12.786Z,99.99
2023-12-29T09:06:12.904Z,99.99
2023-12-29T09:07:12.763Z,99.99
2023-12-29T09:08:12.733Z,99.99
2023-12-29T09:09:12.706Z,99.99
2023-12-29T09:10:12.747Z,99.99
2023-12-29T09:11:14.508Z,99.99
2023-12-29T09:12:12.662Z,99.99
2023-12-29T09:13:12.722Z,99.99
2023-12-29T09:14:12.693Z,99.99
2023-12-29T09:15:12.637Z,99.99
2023-12-29T09:16:12.740Z,99.99
2023-12-29T09:17:13.602Z,99.99
2023-12-29T09:18:12.792Z,99.99
2023-12-29T09:20:12.766Z,99.99
2023-12-29T09:21:12.646Z,99.99
2023-12-29T09:22:12.806Z,99.99
2023-12-29T09:23:12.572Z,99.99
2023-12-29T09:24:12.582Z,99.99
2023-12-29T09:25:12.655Z,99.99
2023-12-29T09:26:12.643Z,99.99
2023-12-29T09:27:12.581Z,99.99
2023-12-29T09:28:12.590Z,99.99
2023-12-29T09:29:12.565Z,99.99
2023-12-29T09:30:12.651Z,99.99
2023-12-29T09:31:12.548Z,99.99
2023-12-29T09:32:12.459Z,99.99
2023-12-29T09:33:12.504Z,99.99
2023-12-29T09:34:12.551Z,99.99
2023-12-29T09:35:12.520Z,99.99
2023-12-29T09:36:12.450Z,99.99
2023-12-29T09:37:12.505Z,99.99
2023-12-29T09:38:12.441Z,99.99
2023-12-29T09:39:12.408Z,99.99
2023-12-29T09:40:12.415Z,99.99
2023-12-29T09:41:12.452Z,99.99
2023-12-29T09:42:12.379Z,99.99
2023-12-29T09:43:12.386Z,99.99
2023-12-29T09:44:12.341Z,99.99
2023-12-29T09:45:12.365Z,99.99
2023-12-29T09:46:12.390Z,99.99
2023-12-29T09:47:12.361Z,99.99
2023-12-29T09:48:12.534Z,99.99
2023-12-29T09:49:12.431Z,99.99
2023-12-29T09:50:12.550Z,99.99
2023-12-29T09:51:12.296Z,99.99
2023-12-29T09:52:12.416Z,99.99
2023-12-29T09:53:12.258Z,99.99
2023-12-29T09:54:14.539Z,99.99
2023-12-29T09:55:12.445Z,99.99
2023-12-29T09:56:12.249Z,99.99
2023-12-29T09:57:12.290Z,99.99
2023-12-29T09:58:12.258Z,99.99
2023-12-29T09:59:12.207Z,99.99
2023-12-29T10:00:12.192Z,99.99
2023-12-29T10:01:12.282Z,99.99
2023-12-29T10:02:12.186Z,99.99
2023-12-29T10:03:12.193Z,99.99
2023-12-29T10:04:12.186Z,99.99
2023-12-29T10:05:12.335Z,99.99
2023-12-29T10:06:12.280Z,99.99
2023-12-29T10:07:12.168Z,99.99
2023-12-29T10:08:12.124Z,99.99
2023-12-29T10:09:12.133Z,99.99
2023-12-29T10:10:12.115Z,99.99
2023-12-29T10:11:12.061Z,99.99
2023-12-29T10:12:12.083Z,99.99
2023-12-29T10:13:12.098Z,99.99
2023-12-29T10:14:12.052Z,99.99
2023-12-29T10:15:12.052Z,99.99
2023-12-29T10:16:12.148Z,99.99
2023-12-29T10:17:12.020Z,99.99
2023-12-29T10:18:12.098Z,99.99
2023-12-29T10:19:12.082Z,99.99
2023-12-29T10:20:12.004Z,99.99
2023-12-29T10:21:11.964Z,99.99
2023-12-29T10:22:12.019Z,99.99
2023-12-29T10:23:11.964Z,99.99
2023-12-29T10:24:11.945Z,99.99
2023-12-29T10:25:11.969Z,99.99
2023-12-29T10:26:11.932Z,99.99
2023-12-29T10:27:11.922Z,99.99
2023-12-29T10:28:12.058Z,99.99
2023-12-29T10:29:11.939Z,99.99
2023-12-29T10:30:19.121Z,99.99
2023-12-29T10:31:11.994Z,99.99
2023-12-29T10:32:11.939Z,99.65
2023-12-29T10:33:11.937Z,99.85
2023-12-29T10:34:11.975Z,99.54
2023-12-29T10:35:11.839Z,99.03
2023-12-29T10:36:11.799Z,99.03
2023-12-29T10:37:11.849Z,98.83
2023-12-29T10:38:11.850Z,99.03
2023-12-29T10:39:11.803Z,99.34
2023-12-29T10:40:11.806Z,99.44
2023-12-29T10:41:11.752Z,99.24
2023-12-29T10:42:14.484Z,99.24
2023-12-29T10:43:12.263Z,99.65
2023-12-29T10:44:12.393Z,99.75
2023-12-29T10:45:12.636Z,99.44
2023-12-29T10:46:11.889Z,99.44
2023-12-29T10:47:11.715Z,99.34
2023-12-29T10:48:11.718Z,99.24
2023-12-29T10:49:11.814Z,99.13
2023-12-29T10:50:11.703Z,99.65
2023-12-29T10:51:11.659Z,99.13
2023-12-29T10:52:11.741Z,99.54
2023-12-29T10:53:11.654Z,99.13
2023-12-29T10:54:11.682Z,99.03
2023-12-29T10:55:11.680Z,99.24
2023-12-29T10:56:11.605Z,99.54
2023-12-29T10:57:11.635Z,99.03
2023-12-29T10:58:11.634Z,99.54
2023-12-29T10:59:11.607Z,99.54
2023-12-29T11:00:11.556Z,99.34
2023-12-29T11:01:11.646Z,98.93
2023-12-29T11:02:11.591Z,99.24
2023-12-29T11:03:11.577Z,99.34
2023-12-29T11:04:11.578Z,99.24
2023-12-29T11:05:11.567Z,99.03
2023-12-29T11:06:11.515Z,99.34
2023-12-29T11:07:11.527Z,98.83
2023-12-29T11:08:11.554Z,98.78
2023-12-29T11:09:11.462Z,98.37
2023-12-29T11:10:12.959Z,98.68
2023-12-29T11:11:11.470Z,98.58
2023-12-29T11:12:11.473Z,98.27
2023-12-29T11:13:11.530Z,98.47
2023-12-29T11:14:11.420Z,98.27
2023-12-29T11:15:11.419Z,98.68
2023-12-29T11:16:11.426Z,98.47
2023-12-29T11:17:11.411Z,98.37
2023-12-29T11:18:11.513Z,97.75
2023-12-29T11:19:11.463Z,97.96
2023-12-29T11:20:11.453Z,98.07
2023-12-29T11:21:11.451Z,97.96
2023-12-29T11:22:11.389Z,97.24
2023-12-29T11:23:11.377Z,97.55
2023-12-29T11:24:13.313Z,97.45
2023-12-29T11:25:11.472Z,97.65
2023-12-29T11:26:11.296Z,97.86
2023-12-29T11:27:11.342Z,97.75
2023-12-29T11:28:11.327Z,98.07
2023-12-29T11:29:11.248Z,97.55
2023-12-29T11:30:12.514Z,97.75
2023-12-29T11:31:11.403Z,97.86
2023-12-29T11:32:11.226Z,97.65
2023-12-29T11:33:11.259Z,97.75
2023-12-29T11:34:11.400Z,97.65
2023-12-29T11:35:11.217Z,97.24
2023-12-29T11:36:16.982Z,97.65
2023-12-29T11:37:11.220Z,97.86
2023-12-29T11:38:11.234Z,97.55
2023-12-29T11:39:11.164Z,97.65
2023-12-29T11:40:11.230Z,97.45
2023-12-29T11:41:11.139Z,97.65
2023-12-29T11:42:11.158Z,97.65
2023-12-29T11:43:11.146Z,97.14
2023-12-29T11:44:11.120Z,96.73
2023-12-29T11:45:11.078Z,96.32
2023-12-29T11:46:11.103Z,95.70
2023-12-29T11:47:11.209Z,96.01
2023-12-29T11:48:11.184Z,95.61
2023-12-29T11:49:11.293Z,96.01
2023-12-29T11:50:11.101Z,96.01
2023-12-29T11:51:11.038Z,95.91
2023-12-29T11:52:11.104Z,96.42
2023-12-29T11:53:11.027Z,96.53
2023-12-29T11:54:11.031Z,96.22
2023-12-29T11:55:11.282Z,96.12
2023-12-29T11:56:10.996Z,96.32
2023-12-29T11:57:10.993Z,96.01
2023-12-29T11:58:11.068Z,95.91
2023-12-29T11:59:11.002Z,95.61
2023-12-29T12:00:10.972Z,95.61
2023-12-29T12:01:10.995Z,96.01
2023-12-29T12:02:11.047Z,96.01
2023-12-29T12:03:10.921Z,94.99
2023-12-29T12:04:10.938Z,94.58
2023-12-29T12:05:11.016Z,94.37
2023-12-29T12:06:10.926Z,94.07
2023-12-29T12:07:10.898Z,93.86
2023-12-29T12:08:10.869Z,93.04
2023-12-29T12:09:10.864Z,93.35
2023-12-29T12:10:10.888Z,92.74
2023-12-29T12:11:12.667Z,92.74
2023-12-29T12:12:10.911Z,93.25
2023-12-29T12:13:10.958Z,93.35
2023-12-29T12:14:10.784Z,93.76
2023-12-29T12:15:10.855Z,93.55
2023-12-29T12:16:10.833Z,93.45
2023-12-29T12:17:11.464Z,93.51
2023-12-29T12:18:11.203Z,93.86
2023-12-29T12:19:10.882Z,93.76
2023-12-29T12:20:10.949Z,93.86
2023-12-29T12:21:10.794Z,93.86
2023-12-29T12:22:10.772Z,94.37
2023-12-29T12:23:10.696Z,94.37
2023-12-29T12:24:10.684Z,93.96
2023-12-29T12:25:10.739Z,94.23
2023-12-29T12:26:10.680Z,94.23
2023-12-29T12:27:10.666Z,94.23
2023-12-29T12:28:11.511Z,94.23
2023-12-29T12:31:20.563Z,94.12
2023-12-29T12:32:21.350Z,93.92
2023-12-29T12:33:31.475Z,94.02
2023-12-29T12:34:23.757Z,94.23
2023-12-29T12:35:21.823Z,94.23
2023-12-29T12:36:21.433Z,94.12
2023-12-29T12:37:21.335Z,93.71
2023-12-29T12:38:21.359Z,94.02
2023-12-29T12:39:21.256Z,93.71
2023-12-29T12:40:21.427Z,93.20
2023-12-29T12:41:21.295Z,93.62
2023-12-29T12:42:21.223Z,93.71
2023-12-29T12:43:21.656Z,93.92
2023-12-29T12:44:21.296Z,93.51
2023-12-29T12:45:21.184Z,93.20
2023-12-29T12:46:21.218Z,93.51
2023-12-29T12:47:21.223Z,93.10
2023-12-29T12:48:21.329Z,93.06
2023-12-29T12:49:21.437Z,93.37
2023-12-29T12:50:33.749Z,93.47
2023-12-29T14:39:54.811Z,96.16
2023-12-29T14:40:55.605Z,96.06
2023-12-29T14:41:55.619Z,96.16
2023-12-29T14:42:55.713Z,96.26
2023-12-29T14:43:55.931Z,96.37
2023-12-29T14:44:55.576Z,96.37
2023-12-29T14:45:55.605Z,95.95
2023-12-29T14:46:55.645Z,96.37
2023-12-29T14:47:55.602Z,96.37
2023-12-29T14:48:55.811Z,96.26
2023-12-29T14:49:55.619Z,96.47
2023-12-29T14:50:55.821Z,96.16
2023-12-29T14:51:55.634Z,96.37
2023-12-29T14:52:55.623Z,96.26
2023-12-29T14:53:55.551Z,96.37
2023-12-29T14:54:56.299Z,96.67
2023-12-29T14:55:55.766Z,97.08
2023-12-29T14:57:04.074Z,97.60
2023-12-29T15:14:09.171Z,99.99
2023-12-29T15:15:09.859Z,99.99
2023-12-29T15:16:07.552Z,99.99
2023-12-29T15:22:05.980Z,99.99
2023-12-29T15:26:11.357Z,99.99
2023-12-29T15:28:24.330Z,99.99
2023-12-29T15:29:25.151Z,99.99
2023-12-29T15:31:42.921Z,99.99
2023-12-29T15:32:44.943Z,99.99
2023-12-29T15:33:45.732Z,99.99
2023-12-29T15:34:43.731Z,99.99